sensor_id;sensor_type;location;lat;lon;timestamp;pressure;altitude;pressure_sealevel;temperature
13570;BMP180;6856;51.460;7.158;2023-02-28T00:01:45;101763.00;;;5.10
13570;BMP180;6856;51.460;7.158;2023-02-28T00:04:19;101767.00;;;5.00
13570;BMP180;6856;51.460;7.158;2023-02-28T00:06:52;101769.00;;;5.00
13570;BMP180;6856;51.460;7.158;2023-02-28T00:09:26;101764.00;;;5.00
13570;BMP180;6856;51.460;7.158;2023-02-28T00:12:02;101752.00;;;5.00
13570;BMP180;6856;51.460;7.158;2023-02-28T00:14:44;101770.00;;;5.00
13570;BMP180;6856;51.460;7.158;2023-02-28T00:17:18;101768.00;;;4.90
13570;BMP180;6856;51.460;7.158;2023-02-28T00:19:53;101774.00;;;4.90
13570;BMP180;6856;51.460;7.158;2023-02-28T00:22:28;101767.00;;;4.90
13570;BMP180;6856;51.460;7.158;2023-02-28T00:25:03;101765.00;;;4.90
13570;BMP180;6856;51.460;7.158;2023-02-28T00:27:40;101780.00;;;4.90
13570;BMP180;6856;51.460;7.158;2023-02-28T00:30:17;101768.00;;;4.90
13570;BMP180;6856;51.460;7.158;2023-02-28T00:32:51;101775.00;;;4.90
13570;BMP180;6856;51.460;7.158;2023-02-28T00:35:25;101769.00;;;4.90
13570;BMP180;6856;51.460;7.158;2023-02-28T00:37:59;101762.00;;;4.80
13570;BMP180;6856;51.460;7.158;2023-02-28T00:40:33;101763.00;;;4.90
13570;BMP180;6856;51.460;7.158;2023-02-28T00:43:10;101769.00;;;4.90
13570;BMP180;6856;51.460;7.158;2023-02-28T00:45:43;101767.00;;;4.90
13570;BMP180;6856;51.460;7.158;2023-02-28T00:48:17;101746.00;;;4.90
13570;BMP180;6856;51.460;7.158;2023-02-28T00:50:51;101768.00;;;4.90
13570;BMP180;6856;51.460;7.158;2023-02-28T00:53:25;101770.00;;;4.90
13570;BMP180;6856;51.460;7.158;2023-02-28T00:55:59;101777.00;;;4.90
13570;BMP180;6856;51.460;7.158;2023-02-28T00:58:34;101760.00;;;4.90
13570;BMP180;6856;51.460;7.158;2023-02-28T01:01:08;101787.00;;;4.90
13570;BMP180;6856;51.460;7.158;2023-02-28T01:03:43;101789.00;;;4.90
13570;BMP180;6856;51.460;7.158;2023-02-28T01:06:17;101784.00;;;4.90
13570;BMP180;6856;51.460;7.158;2023-02-28T01:08:51;101789.00;;;4.90
13570;BMP180;6856;51.460;7.158;2023-02-28T01:11:25;101785.00;;;4.90
13570;BMP180;6856;51.460;7.158;2023-02-28T01:14:01;101779.00;;;4.80
13570;BMP180;6856;51.460;7.158;2023-02-28T01:16:36;101785.00;;;4.80
13570;BMP180;6856;51.460;7.158;2023-02-28T01:19:10;101782.00;;;4.80
13570;BMP180;6856;51.460;7.158;2023-02-28T01:21:45;101788.00;;;4.80
13570;BMP180;6856;51.460;7.158;2023-02-28T01:24:19;101790.00;;;4.70
13570;BMP180;6856;51.460;7.158;2023-02-28T01:26:52;101781.00;;;4.70
13570;BMP180;6856;51.460;7.158;2023-02-28T01:29:28;101782.00;;;4.70
13570;BMP180;6856;51.460;7.158;2023-02-28T01:32:03;101773.00;;;4.70
13570;BMP180;6856;51.460;7.158;2023-02-28T01:34:37;101777.00;;;4.60
13570;BMP180;6856;51.460;7.158;2023-02-28T01:37:11;101782.00;;;4.60
13570;BMP180;6856;51.460;7.158;2023-02-28T01:39:46;101780.00;;;4.60
13570;BMP180;6856;51.460;7.158;2023-02-28T01:42:20;101771.00;;;4.60
13570;BMP180;6856;51.460;7.158;2023-02-28T01:45:22;101779.00;;;4.60
13570;BMP180;6856;51.460;7.158;2023-02-28T01:48:04;101767.00;;;4.50
13570;BMP180;6856;51.460;7.158;2023-02-28T01:50:43;101747.00;;;4.50
13570;BMP180;6856;51.460;7.158;2023-02-28T01:53:24;101768.00;;;4.60
13570;BMP180;6856;51.460;7.158;2023-02-28T01:56:04;101756.00;;;4.50
13570;BMP180;6856;51.460;7.158;2023-02-28T01:58:39;101738.00;;;4.60
13570;BMP180;6856;51.460;7.158;2023-02-28T02:01:14;101757.00;;;4.60
13570;BMP180;6856;51.460;7.158;2023-02-28T02:03:56;101757.00;;;4.60
13570;BMP180;6856;51.460;7.158;2023-02-28T02:06:37;101750.00;;;4.60
13570;BMP180;6856;51.460;7.158;2023-02-28T02:09:11;101756.00;;;4.60
13570;BMP180;6856;51.460;7.158;2023-02-28T02:11:47;101752.00;;;4.60
13570;BMP180;6856;51.460;7.158;2023-02-28T02:14:55;101748.00;;;4.60
13570;BMP180;6856;51.460;7.158;2023-02-28T02:17:41;101745.00;;;4.50
13570;BMP180;6856;51.460;7.158;2023-02-28T02:21:13;101746.00;;;4.50
13570;BMP180;6856;51.460;7.158;2023-02-28T02:24:29;101734.00;;;4.50
13570;BMP180;6856;51.460;7.158;2023-02-28T02:27:28;101733.00;;;4.50
13570;BMP180;6856;51.460;7.158;2023-02-28T02:30:57;101735.00;;;4.50
13570;BMP180;6856;51.460;7.158;2023-02-28T02:34:41;101734.00;;;4.50
13570;BMP180;6856;51.460;7.158;2023-02-28T02:37:29;101741.00;;;4.40
13570;BMP180;6856;51.460;7.158;2023-02-28T02:40:14;101734.00;;;4.40
13570;BMP180;6856;51.460;7.158;2023-02-28T02:42:56;101734.00;;;4.40
13570;BMP180;6856;51.460;7.158;2023-02-28T02:45:38;101733.00;;;4.40
13570;BMP180;6856;51.460;7.158;2023-02-28T02:48:19;101729.00;;;4.40
13570;BMP180;6856;51.460;7.158;2023-02-28T02:50:59;101733.00;;;4.40
13570;BMP180;6856;51.460;7.158;2023-02-28T02:53:40;101739.00;;;4.40
13570;BMP180;6856;51.460;7.158;2023-02-28T02:56:18;101735.00;;;4.30
13570;BMP180;6856;51.460;7.158;2023-02-28T02:59:01;101736.00;;;4.30
13570;BMP180;6856;51.460;7.158;2023-02-28T03:01:38;101735.00;;;4.30
13570;BMP180;6856;51.460;7.158;2023-02-28T03:04:19;101743.00;;;4.30
13570;BMP180;6856;51.460;7.158;2023-02-28T03:06:55;101737.00;;;4.30
13570;BMP180;6856;51.460;7.158;2023-02-28T03:09:34;101735.00;;;4.20
13570;BMP180;6856;51.460;7.158;2023-02-28T03:12:12;101749.00;;;4.20
13570;BMP180;6856;51.460;7.158;2023-02-28T03:14:56;101742.00;;;4.10
13570;BMP180;6856;51.460;7.158;2023-02-28T03:17:53;101738.00;;;4.10
13570;BMP180;6856;51.460;7.158;2023-02-28T03:20:40;101736.00;;;4.10
13570;BMP180;6856;51.460;7.158;2023-02-28T03:23:34;101732.00;;;4.00
13570;BMP180;6856;51.460;7.158;2023-02-28T03:26:19;101735.00;;;4.00
13570;BMP180;6856;51.460;7.158;2023-02-28T03:29:03;101730.00;;;4.00
13570;BMP180;6856;51.460;7.158;2023-02-28T03:31:43;101741.00;;;4.00
13570;BMP180;6856;51.460;7.158;2023-02-28T03:34:25;101733.00;;;4.00
13570;BMP180;6856;51.460;7.158;2023-02-28T03:37:05;101713.00;;;4.00
13570;BMP180;6856;51.460;7.158;2023-02-28T03:39:47;101727.00;;;3.90
13570;BMP180;6856;51.460;7.158;2023-02-28T03:42:27;101735.00;;;3.90
13570;BMP180;6856;51.460;7.158;2023-02-28T03:45:05;101733.00;;;3.90
13570;BMP180;6856;51.460;7.158;2023-02-28T03:47:48;101740.00;;;3.90
13570;BMP180;6856;51.460;7.158;2023-02-28T03:50:27;101737.00;;;3.90
13570;BMP180;6856;51.460;7.158;2023-02-28T03:53:08;101744.00;;;3.90
13570;BMP180;6856;51.460;7.158;2023-02-28T03:55:49;101737.00;;;3.80
13570;BMP180;6856;51.460;7.158;2023-02-28T03:58:31;101742.00;;;4.00
13570;BMP180;6856;51.460;7.158;2023-02-28T04:01:13;101743.00;;;3.90
13570;BMP180;6856;51.460;7.158;2023-02-28T04:03:50;101742.00;;;3.90
13570;BMP180;6856;51.460;7.158;2023-02-28T04:06:25;101736.00;;;3.90
13570;BMP180;6856;51.460;7.158;2023-02-28T04:09:00;101738.00;;;3.90
13570;BMP180;6856;51.460;7.158;2023-02-28T04:11:39;101737.00;;;3.90
13570;BMP180;6856;51.460;7.158;2023-02-28T04:14:13;101745.00;;;3.90
13570;BMP180;6856;51.460;7.158;2023-02-28T04:16:47;101738.00;;;3.90
13570;BMP180;6856;51.460;7.158;2023-02-28T04:19:22;101743.00;;;3.90
13570;BMP180;6856;51.460;7.158;2023-02-28T04:21:56;101741.00;;;3.90
13570;BMP180;6856;51.460;7.158;2023-02-28T04:24:30;101754.00;;;3.90
13570;BMP180;6856;51.460;7.158;2023-02-28T04:27:05;101743.00;;;3.90
13570;BMP180;6856;51.460;7.158;2023-02-28T04:29:38;101748.00;;;3.80
13570;BMP180;6856;51.460;7.158;2023-02-28T04:32:16;101746.00;;;3.80
13570;BMP180;6856;51.460;7.158;2023-02-28T04:34:50;101753.00;;;3.80
13570;BMP180;6856;51.460;7.158;2023-02-28T04:37:24;101744.00;;;3.80
13570;BMP180;6856;51.460;7.158;2023-02-28T04:40:01;101752.00;;;3.70
13570;BMP180;6856;51.460;7.158;2023-02-28T04:42:36;101737.00;;;3.70
13570;BMP180;6856;51.460;7.158;2023-02-28T04:45:10;101747.00;;;3.70
13570;BMP180;6856;51.460;7.158;2023-02-28T04:47:44;101751.00;;;3.60
13570;BMP180;6856;51.460;7.158;2023-02-28T04:50:18;101749.00;;;3.60
13570;BMP180;6856;51.460;7.158;2023-02-28T04:52:51;101763.00;;;3.70
13570;BMP180;6856;51.460;7.158;2023-02-28T04:55:25;101758.00;;;3.60
13570;BMP180;6856;51.460;7.158;2023-02-28T04:58:00;101750.00;;;3.60
13570;BMP180;6856;51.460;7.158;2023-02-28T05:00:36;101750.00;;;3.60
13570;BMP180;6856;51.460;7.158;2023-02-28T05:03:10;101746.00;;;3.60
13570;BMP180;6856;51.460;7.158;2023-02-28T05:05:44;101754.00;;;3.60
13570;BMP180;6856;51.460;7.158;2023-02-28T05:08:18;101750.00;;;3.60
13570;BMP180;6856;51.460;7.158;2023-02-28T05:10:52;101753.00;;;3.60
13570;BMP180;6856;51.460;7.158;2023-02-28T05:13:28;101758.00;;;3.60
13570;BMP180;6856;51.460;7.158;2023-02-28T05:16:02;101760.00;;;3.50
13570;BMP180;6856;51.460;7.158;2023-02-28T05:18:36;101756.00;;;3.50
13570;BMP180;6856;51.460;7.158;2023-02-28T05:21:25;101766.00;;;3.50
13570;BMP180;6856;51.460;7.158;2023-02-28T05:24:02;101766.00;;;3.50
13570;BMP180;6856;51.460;7.158;2023-02-28T05:26:39;101772.00;;;3.50
13570;BMP180;6856;51.460;7.158;2023-02-28T05:29:15;101764.00;;;3.50
13570;BMP180;6856;51.460;7.158;2023-02-28T05:31:49;101752.00;;;3.40
13570;BMP180;6856;51.460;7.158;2023-02-28T05:34:26;101769.00;;;3.40
13570;BMP180;6856;51.460;7.158;2023-02-28T05:36:59;101769.00;;;3.40
13570;BMP180;6856;51.460;7.158;2023-02-28T05:39:33;101773.00;;;3.40
13570;BMP180;6856;51.460;7.158;2023-02-28T05:42:07;101771.00;;;3.40
13570;BMP180;6856;51.460;7.158;2023-02-28T05:44:42;101767.00;;;3.40
13570;BMP180;6856;51.460;7.158;2023-02-28T05:47:16;101779.00;;;3.40
13570;BMP180;6856;51.460;7.158;2023-02-28T05:49:50;101774.00;;;3.40
13570;BMP180;6856;51.460;7.158;2023-02-28T05:52:24;101775.00;;;3.30
13570;BMP180;6856;51.460;7.158;2023-02-28T05:54:58;101756.00;;;3.40
13570;BMP180;6856;51.460;7.158;2023-02-28T05:57:32;101787.00;;;3.40
13570;BMP180;6856;51.460;7.158;2023-02-28T06:00:10;101783.00;;;3.30
13570;BMP180;6856;51.460;7.158;2023-02-28T06:02:47;101788.00;;;3.30
13570;BMP180;6856;51.460;7.158;2023-02-28T06:05:21;101753.00;;;3.30
13570;BMP180;6856;51.460;7.158;2023-02-28T06:07:55;101787.00;;;3.30
13570;BMP180;6856;51.460;7.158;2023-02-28T06:10:29;101793.00;;;3.30
13570;BMP180;6856;51.460;7.158;2023-02-28T06:13:05;101805.00;;;3.30
13570;BMP180;6856;51.460;7.158;2023-02-28T06:15:41;101798.00;;;3.30
13570;BMP180;6856;51.460;7.158;2023-02-28T06:18:15;101801.00;;;3.30
13570;BMP180;6856;51.460;7.158;2023-02-28T06:20:53;101804.00;;;3.20
13570;BMP180;6856;51.460;7.158;2023-02-28T06:23:28;101804.00;;;3.30
13570;BMP180;6856;51.460;7.158;2023-02-28T06:26:02;101809.00;;;3.30
13570;BMP180;6856;51.460;7.158;2023-02-28T06:28:36;101805.00;;;3.30
13570;BMP180;6856;51.460;7.158;2023-02-28T06:31:13;101818.00;;;3.20
13570;BMP180;6856;51.460;7.158;2023-02-28T06:33:48;101808.00;;;3.20
13570;BMP180;6856;51.460;7.158;2023-02-28T06:36:24;101810.00;;;3.20
13570;BMP180;6856;51.460;7.158;2023-02-28T06:38:58;101815.00;;;3.20
13570;BMP180;6856;51.460;7.158;2023-02-28T06:41:32;101810.00;;;3.20
13570;BMP180;6856;51.460;7.158;2023-02-28T06:44:25;101814.00;;;3.20
13570;BMP180;6856;51.460;7.158;2023-02-28T06:47:01;101810.00;;;3.20
13570;BMP180;6856;51.460;7.158;2023-02-28T06:49:36;101812.00;;;3.20
13570;BMP180;6856;51.460;7.158;2023-02-28T06:52:11;101812.00;;;3.20
13570;BMP180;6856;51.460;7.158;2023-02-28T06:54:45;101812.00;;;3.20
13570;BMP180;6856;51.460;7.158;2023-02-28T06:57:18;101820.00;;;3.20
13570;BMP180;6856;51.460;7.158;2023-02-28T06:59:52;101827.00;;;3.20
13570;BMP180;6856;51.460;7.158;2023-02-28T07:02:28;101811.00;;;3.20
13570;BMP180;6856;51.460;7.158;2023-02-28T07:05:03;101817.00;;;3.30
13570;BMP180;6856;51.460;7.158;2023-02-28T07:07:37;101825.00;;;3.30
13570;BMP180;6856;51.460;7.158;2023-02-28T07:10:13;101827.00;;;3.30
13570;BMP180;6856;51.460;7.158;2023-02-28T07:12:51;101826.00;;;3.30
13570;BMP180;6856;51.460;7.158;2023-02-28T07:15:25;101828.00;;;3.30
13570;BMP180;6856;51.460;7.158;2023-02-28T07:18:02;101821.00;;;3.40
13570;BMP180;6856;51.460;7.158;2023-02-28T07:20:36;101832.00;;;3.40
13570;BMP180;6856;51.460;7.158;2023-02-28T07:23:09;101832.00;;;3.40
13570;BMP180;6856;51.460;7.158;2023-02-28T07:25:45;101824.00;;;3.50
13570;BMP180;6856;51.460;7.158;2023-02-28T07:28:20;101830.00;;;3.50
13570;BMP180;6856;51.460;7.158;2023-02-28T07:30:54;101832.00;;;3.50
13570;BMP180;6856;51.460;7.158;2023-02-28T07:33:29;101833.00;;;3.50
13570;BMP180;6856;51.460;7.158;2023-02-28T07:36:06;101837.00;;;3.60
13570;BMP180;6856;51.460;7.158;2023-02-28T07:38:39;101844.00;;;3.60
13570;BMP180;6856;51.460;7.158;2023-02-28T07:41:13;101836.00;;;3.70
13570;BMP180;6856;51.460;7.158;2023-02-28T07:43:48;101828.00;;;3.70
13570;BMP180;6856;51.460;7.158;2023-02-28T07:46:22;101842.00;;;3.80
13570;BMP180;6856;51.460;7.158;2023-02-28T07:48:57;101846.00;;;3.90
13570;BMP180;6856;51.460;7.158;2023-02-28T07:51:32;101837.00;;;3.90
13570;BMP180;6856;51.460;7.158;2023-02-28T07:54:06;101850.00;;;4.00
13570;BMP180;6856;51.460;7.158;2023-02-28T07:56:40;101844.00;;;4.00
13570;BMP180;6856;51.460;7.158;2023-02-28T07:59:14;101853.00;;;4.10
13570;BMP180;6856;51.460;7.158;2023-02-28T08:01:48;101850.00;;;4.10
13570;BMP180;6856;51.460;7.158;2023-02-28T08:04:24;101855.00;;;4.20
13570;BMP180;6856;51.460;7.158;2023-02-28T08:06:58;101857.00;;;4.20
13570;BMP180;6856;51.460;7.158;2023-02-28T08:09:33;101865.00;;;4.30
13570;BMP180;6856;51.460;7.158;2023-02-28T08:12:09;101831.00;;;4.30
13570;BMP180;6856;51.460;7.158;2023-02-28T08:14:43;101863.00;;;4.30
13570;BMP180;6856;51.460;7.158;2023-02-28T08:17:17;101863.00;;;4.40
13570;BMP180;6856;51.460;7.158;2023-02-28T08:19:53;101863.00;;;4.40
13570;BMP180;6856;51.460;7.158;2023-02-28T08:22:27;101854.00;;;4.50
13570;BMP180;6856;51.460;7.158;2023-02-28T08:25:02;101856.00;;;4.50
13570;BMP180;6856;51.460;7.158;2023-02-28T08:27:36;101852.00;;;4.60
13570;BMP180;6856;51.460;7.158;2023-02-28T08:30:12;101851.00;;;4.60
13570;BMP180;6856;51.460;7.158;2023-02-28T08:32:46;101856.00;;;4.60
13570;BMP180;6856;51.460;7.158;2023-02-28T08:35:21;101864.00;;;4.70
13570;BMP180;6856;51.460;7.158;2023-02-28T08:37:55;101857.00;;;4.70
13570;BMP180;6856;51.460;7.158;2023-02-28T08:40:29;101850.00;;;4.80
13570;BMP180;6856;51.460;7.158;2023-02-28T08:43:03;101859.00;;;4.90
13570;BMP180;6856;51.460;7.158;2023-02-28T08:45:38;101860.00;;;5.00
13570;BMP180;6856;51.460;7.158;2023-02-28T08:48:11;101865.00;;;5.00
13570;BMP180;6856;51.460;7.158;2023-02-28T08:50:56;101858.00;;;5.10
13570;BMP180;6856;51.460;7.158;2023-02-28T08:53:39;101852.00;;;5.20
13570;BMP180;6856;51.460;7.158;2023-02-28T08:56:15;101855.00;;;5.30
13570;BMP180;6856;51.460;7.158;2023-02-28T08:58:51;101859.00;;;5.40
13570;BMP180;6856;51.460;7.158;2023-02-28T09:01:29;101852.00;;;5.40
13570;BMP180;6856;51.460;7.158;2023-02-28T09:04:04;101865.00;;;5.50
13570;BMP180;6856;51.460;7.158;2023-02-28T09:06:42;101857.00;;;5.50
13570;BMP180;6856;51.460;7.158;2023-02-28T09:09:16;101858.00;;;5.60
13570;BMP180;6856;51.460;7.158;2023-02-28T09:11:50;101861.00;;;5.70
13570;BMP180;6856;51.460;7.158;2023-02-28T09:14:24;101854.00;;;5.70
13570;BMP180;6856;51.460;7.158;2023-02-28T09:16:58;101860.00;;;5.80
13570;BMP180;6856;51.460;7.158;2023-02-28T09:19:32;101855.00;;;5.90
13570;BMP180;6856;51.460;7.158;2023-02-28T09:22:07;101845.00;;;5.90
13570;BMP180;6856;51.460;7.158;2023-02-28T09:24:41;101802.00;;;6.00
13570;BMP180;6856;51.460;7.158;2023-02-28T09:27:17;101854.00;;;6.10
13570;BMP180;6856;51.460;7.158;2023-02-28T09:29:50;101857.00;;;6.20
13570;BMP180;6856;51.460;7.158;2023-02-28T09:32:24;101848.00;;;6.20
13570;BMP180;6856;51.460;7.158;2023-02-28T09:34:58;101851.00;;;6.30
13570;BMP180;6856;51.460;7.158;2023-02-28T09:37:33;101851.00;;;6.40
13570;BMP180;6856;51.460;7.158;2023-02-28T09:40:11;101856.00;;;6.50
13570;BMP180;6856;51.460;7.158;2023-02-28T09:42:47;101844.00;;;6.60
13570;BMP180;6856;51.460;7.158;2023-02-28T09:45:27;101847.00;;;6.60
13570;BMP180;6856;51.460;7.158;2023-02-28T09:48:10;101856.00;;;6.80
13570;BMP180;6856;51.460;7.158;2023-02-28T09:50:50;101863.00;;;6.80
13570;BMP180;6856;51.460;7.158;2023-02-28T09:53:31;101857.00;;;6.90
13570;BMP180;6856;51.460;7.158;2023-02-28T09:56:10;101854.00;;;7.00
13570;BMP180;6856;51.460;7.158;2023-02-28T09:58:49;101839.00;;;7.10
13570;BMP180;6856;51.460;7.158;2023-02-28T10:01:34;101839.00;;;7.20
13570;BMP180;6856;51.460;7.158;2023-02-28T10:04:32;101853.00;;;7.20
13570;BMP180;6856;51.460;7.158;2023-02-28T10:07:24;101826.00;;;7.30
13570;BMP180;6856;51.460;7.158;2023-02-28T10:10:13;101854.00;;;7.40
13570;BMP180;6856;51.460;7.158;2023-02-28T10:12:53;101846.00;;;7.40
13570;BMP180;6856;51.460;7.158;2023-02-28T10:15:32;101837.00;;;7.40
13570;BMP180;6856;51.460;7.158;2023-02-28T10:18:15;101851.00;;;7.50
13570;BMP180;6856;51.460;7.158;2023-02-28T10:20:53;101842.00;;;7.60
13570;BMP180;6856;51.460;7.158;2023-02-28T10:23:34;101844.00;;;7.60
13570;BMP180;6856;51.460;7.158;2023-02-28T10:26:13;101815.00;;;7.70
13570;BMP180;6856;51.460;7.158;2023-02-28T10:28:50;101851.00;;;7.80
13570;BMP180;6856;51.460;7.158;2023-02-28T10:31:25;101840.00;;;7.80
13570;BMP180;6856;51.460;7.158;2023-02-28T10:33:59;101840.00;;;7.90
13570;BMP180;6856;51.460;7.158;2023-02-28T10:36:33;101833.00;;;8.00
13570;BMP180;6856;51.460;7.158;2023-02-28T10:39:39;101842.00;;;8.00
13570;BMP180;6856;51.460;7.158;2023-02-28T10:42:24;101818.00;;;8.10
13570;BMP180;6856;51.460;7.158;2023-02-28T10:45:13;101833.00;;;8.20
13570;BMP180;6856;51.460;7.158;2023-02-28T10:47:54;101832.00;;;8.20
13570;BMP180;6856;51.460;7.158;2023-02-28T10:50:35;101831.00;;;8.20
13570;BMP180;6856;51.460;7.158;2023-02-28T10:53:40;101827.00;;;8.20
13570;BMP180;6856;51.460;7.158;2023-02-28T10:56:32;101827.00;;;8.30
13570;BMP180;6856;51.460;7.158;2023-02-28T10:59:29;101830.00;;;8.30
13570;BMP180;6856;51.460;7.158;2023-02-28T11:02:32;101837.00;;;8.40
13570;BMP180;6856;51.460;7.158;2023-02-28T11:05:29;101823.00;;;8.40
13570;BMP180;6856;51.460;7.158;2023-02-28T11:08:10;101837.00;;;8.40
13570;BMP180;6856;51.460;7.158;2023-02-28T11:10:47;101825.00;;;8.40
13570;BMP180;6856;51.460;7.158;2023-02-28T11:13:28;101830.00;;;8.50
13570;BMP180;6856;51.460;7.158;2023-02-28T11:16:07;101825.00;;;8.50
13570;BMP180;6856;51.460;7.158;2023-02-28T11:18:48;101804.00;;;8.50
13570;BMP180;6856;51.460;7.158;2023-02-28T11:21:27;101824.00;;;8.50
13570;BMP180;6856;51.460;7.158;2023-02-28T11:24:12;101826.00;;;8.60
13570;BMP180;6856;51.460;7.158;2023-02-28T11:26:49;101829.00;;;8.60
13570;BMP180;6856;51.460;7.158;2023-02-28T11:29:26;101823.00;;;8.60
13570;BMP180;6856;51.460;7.158;2023-02-28T11:32:16;101827.00;;;8.60
13570;BMP180;6856;51.460;7.158;2023-02-28T11:35:02;101835.00;;;8.50
13570;BMP180;6856;51.460;7.158;2023-02-28T11:37:39;101818.00;;;8.50
13570;BMP180;6856;51.460;7.158;2023-02-28T11:40:15;101823.00;;;8.50
13570;BMP180;6856;51.460;7.158;2023-02-28T11:43:05;101817.00;;;8.50
13570;BMP180;6856;51.460;7.158;2023-02-28T11:45:55;101819.00;;;8.50
13570;BMP180;6856;51.460;7.158;2023-02-28T11:48:45;101811.00;;;8.60
13570;BMP180;6856;51.460;7.158;2023-02-28T11:51:28;101808.00;;;8.60
13570;BMP180;6856;51.460;7.158;2023-02-28T11:54:35;101828.00;;;8.70
13570;BMP180;6856;51.460;7.158;2023-02-28T11:57:34;101823.00;;;8.80
13570;BMP180;6856;51.460;7.158;2023-02-28T12:00:30;101817.00;;;8.90
13570;BMP180;6856;51.460;7.158;2023-02-28T12:03:22;101820.00;;;8.90
13570;BMP180;6856;51.460;7.158;2023-02-28T12:06:15;101799.00;;;9.00
13570;BMP180;6856;51.460;7.158;2023-02-28T12:09:20;101799.00;;;9.10
13570;BMP180;6856;51.460;7.158;2023-02-28T12:12:04;101802.00;;;9.20
13570;BMP180;6856;51.460;7.158;2023-02-28T12:15:00;101809.00;;;9.30
13570;BMP180;6856;51.460;7.158;2023-02-28T12:17:53;101809.00;;;9.40
13570;BMP180;6856;51.460;7.158;2023-02-28T12:20:37;101802.00;;;9.50
13570;BMP180;6856;51.460;7.158;2023-02-28T12:26:19;101785.00;;;9.60
13570;BMP180;6856;51.460;7.158;2023-02-28T12:29:04;101777.00;;;9.60
13570;BMP180;6856;51.460;7.158;2023-02-28T12:31:48;101779.00;;;9.60
13570;BMP180;6856;51.460;7.158;2023-02-28T12:34:30;101763.00;;;9.70
13570;BMP180;6856;51.460;7.158;2023-02-28T12:37:12;101773.00;;;9.80
13570;BMP180;6856;51.460;7.158;2023-02-28T12:39:55;101767.00;;;9.80
13570;BMP180;6856;51.460;7.158;2023-02-28T12:42:36;101769.00;;;9.90
13570;BMP180;6856;51.460;7.158;2023-02-28T12:45:18;101764.00;;;10.00
13570;BMP180;6856;51.460;7.158;2023-02-28T12:47:58;101756.00;;;10.10
13570;BMP180;6856;51.460;7.158;2023-02-28T12:50:33;101764.00;;;10.10
13570;BMP180;6856;51.460;7.158;2023-02-28T12:53:17;101731.00;;;10.20
13570;BMP180;6856;51.460;7.158;2023-02-28T12:56:09;101756.00;;;10.20
13570;BMP180;6856;51.460;7.158;2023-02-28T12:58:54;101754.00;;;10.20
13570;BMP180;6856;51.460;7.158;2023-02-28T13:05:19;101742.00;;;10.20
13570;BMP180;6856;51.460;7.158;2023-02-28T13:08:36;101717.00;;;10.20
13570;BMP180;6856;51.460;7.158;2023-02-28T13:11:27;101738.00;;;10.30
13570;BMP180;6856;51.460;7.158;2023-02-28T13:14:06;101736.00;;;10.30
13570;BMP180;6856;51.460;7.158;2023-02-28T13:16:58;101727.00;;;10.30
13570;BMP180;6856;51.460;7.158;2023-02-28T13:19:34;101729.00;;;10.40
13570;BMP180;6856;51.460;7.158;2023-02-28T13:22:20;101727.00;;;10.40
13570;BMP180;6856;51.460;7.158;2023-02-28T13:25:52;101728.00;;;10.50
13570;BMP180;6856;51.460;7.158;2023-02-28T13:29:27;101733.00;;;10.50
13570;BMP180;6856;51.460;7.158;2023-02-28T13:32:42;101721.00;;;10.50
13570;BMP180;6856;51.460;7.158;2023-02-28T13:35:43;101712.00;;;10.60
13570;BMP180;6856;51.460;7.158;2023-02-28T13:38:34;101727.00;;;10.60
13570;BMP180;6856;51.460;7.158;2023-02-28T13:41:48;101710.00;;;10.60
13570;BMP180;6856;51.460;7.158;2023-02-28T13:44:23;101716.00;;;10.60
13570;BMP180;6856;51.460;7.158;2023-02-28T13:47:23;101700.00;;;10.60
13570;BMP180;6856;51.460;7.158;2023-02-28T13:50:26;101710.00;;;10.60
13570;BMP180;6856;51.460;7.158;2023-02-28T13:53:34;101710.00;;;10.60
13570;BMP180;6856;51.460;7.158;2023-02-28T13:56:30;101714.00;;;10.60
13570;BMP180;6856;51.460;7.158;2023-02-28T13:59:22;101713.00;;;10.60
13570;BMP180;6856;51.460;7.158;2023-02-28T14:02:32;101705.00;;;10.60
13570;BMP180;6856;51.460;7.158;2023-02-28T14:05:15;101699.00;;;10.60
13570;BMP180;6856;51.460;7.158;2023-02-28T14:07:58;101711.00;;;10.60
13570;BMP180;6856;51.460;7.158;2023-02-28T14:10:41;101709.00;;;10.60
13570;BMP180;6856;51.460;7.158;2023-02-28T14:13:42;101701.00;;;10.60
13570;BMP180;6856;51.460;7.158;2023-02-28T14:16:23;101710.00;;;10.60
13570;BMP180;6856;51.460;7.158;2023-02-28T14:19:04;101707.00;;;10.50
13570;BMP180;6856;51.460;7.158;2023-02-28T14:22:16;101712.00;;;10.50
13570;BMP180;6856;51.460;7.158;2023-02-28T14:25:22;101697.00;;;10.50
13570;BMP180;6856;51.460;7.158;2023-02-28T14:28:12;101698.00;;;10.40
13570;BMP180;6856;51.460;7.158;2023-02-28T14:31:01;101692.00;;;10.40
13570;BMP180;6856;51.460;7.158;2023-02-28T14:33:59;101700.00;;;10.40
13570;BMP180;6856;51.460;7.158;2023-02-28T14:36:37;101704.00;;;10.40
13570;BMP180;6856;51.460;7.158;2023-02-28T14:39:15;101701.00;;;10.40
13570;BMP180;6856;51.460;7.158;2023-02-28T14:41:52;101681.00;;;10.30
13570;BMP180;6856;51.460;7.158;2023-02-28T14:44:27;101698.00;;;10.30
13570;BMP180;6856;51.460;7.158;2023-02-28T14:47:03;101698.00;;;10.30
13570;BMP180;6856;51.460;7.158;2023-02-28T14:49:47;101712.00;;;10.20
13570;BMP180;6856;51.460;7.158;2023-02-28T14:52:23;101709.00;;;10.20
13570;BMP180;6856;51.460;7.158;2023-02-28T14:55:01;101704.00;;;10.20
13570;BMP180;6856;51.460;7.158;2023-02-28T14:57:50;101693.00;;;10.10
13570;BMP180;6856;51.460;7.158;2023-02-28T15:00:27;101708.00;;;10.10
13570;BMP180;6856;51.460;7.158;2023-02-28T15:03:20;101691.00;;;10.00
13570;BMP180;6856;51.460;7.158;2023-02-28T15:05:57;101692.00;;;10.00
13570;BMP180;6856;51.460;7.158;2023-02-28T15:08:32;101686.00;;;9.90
13570;BMP180;6856;51.460;7.158;2023-02-28T15:11:13;101681.00;;;9.90
13570;BMP180;6856;51.460;7.158;2023-02-28T15:13:53;101688.00;;;9.80
13570;BMP180;6856;51.460;7.158;2023-02-28T15:16:33;101677.00;;;9.80
13570;BMP180;6856;51.460;7.158;2023-02-28T15:19:19;101687.00;;;9.70
13570;BMP180;6856;51.460;7.158;2023-02-28T15:22:00;101689.00;;;9.60
13570;BMP180;6856;51.460;7.158;2023-02-28T15:24:42;101686.00;;;9.60
13570;BMP180;6856;51.460;7.158;2023-02-28T15:27:22;101681.00;;;9.50
13570;BMP180;6856;51.460;7.158;2023-02-28T15:30:00;101686.00;;;9.50
13570;BMP180;6856;51.460;7.158;2023-02-28T15:32:39;101671.00;;;9.50
13570;BMP180;6856;51.460;7.158;2023-02-28T15:35:27;101684.00;;;9.40
13570;BMP180;6856;51.460;7.158;2023-02-28T15:38:14;101681.00;;;9.40
13570;BMP180;6856;51.460;7.158;2023-02-28T15:40:52;101679.00;;;9.30
13570;BMP180;6856;51.460;7.158;2023-02-28T15:43:31;101679.00;;;9.30
13570;BMP180;6856;51.460;7.158;2023-02-28T15:46:09;101678.00;;;9.30